sensor_id;sensor_type;location;lat;lon;timestamp;P1;durP1;ratioP1;P2;durP2;ratioP2
79377;SDS011;68959;53.132;17.984;2023-06-24T00:01:02;10.00;;;4.70;;
79377;SDS011;68959;53.132;17.984;2023-06-24T00:03:36;6.60;;;4.20;;
79377;SDS011;68959;53.132;17.984;2023-06-24T00:06:03;6.80;;;4.30;;
79377;SDS011;68959;53.132;17.984;2023-06-24T00:08:30;6.30;;;4.80;;
79377;SDS011;68959;53.132;17.984;2023-06-24T00:11:01;9.20;;;4.20;;
79377;SDS011;68959;53.132;17.984;2023-06-24T00:13:29;7.10;;;5.00;;
79377;SDS011;68959;53.132;17.984;2023-06-24T00:15:55;7.80;;;4.60;;
79377;SDS011;68959;53.132;17.984;2023-06-24T00:18:24;9.30;;;4.90;;
79377;SDS011;68959;53.132;17.984;2023-06-24T00:20:55;8.50;;;4.90;;
79377;SDS011;68959;53.132;17.984;2023-06-24T00:23:23;9.60;;;4.90;;
79377;SDS011;68959;53.132;17.984;2023-06-24T00:25:54;10.40;;;4.70;;
79377;SDS011;68959;53.132;17.984;2023-06-24T00:28:22;9.10;;;5.70;;
79377;SDS011;68959;53.132;17.984;2023-06-24T00:30:49;7.70;;;5.00;;
79377;SDS011;68959;53.132;17.984;2023-06-24T00:33:16;9.40;;;4.30;;
79377;SDS011;68959;53.132;17.984;2023-06-24T00:35:46;7.00;;;5.10;;
79377;SDS011;68959;53.132;17.984;2023-06-24T00:38:14;6.60;;;4.60;;
79377;SDS011;68959;53.132;17.984;2023-06-24T00:40:41;6.00;;;4.50;;
79377;SDS011;68959;53.132;17.984;2023-06-24T00:43:08;9.40;;;5.10;;
79377;SDS011;68959;53.132;17.984;2023-06-24T00:45:36;7.90;;;4.20;;
79377;SDS011;68959;53.132;17.984;2023-06-24T00:48:03;8.20;;;4.60;;
79377;SDS011;68959;53.132;17.984;2023-06-24T00:50:30;7.70;;;5.50;;
79377;SDS011;68959;53.132;17.984;2023-06-24T00:52:57;9.60;;;5.00;;
79377;SDS011;68959;53.132;17.984;2023-06-24T00:55:23;7.90;;;4.50;;
79377;SDS011;68959;53.132;17.984;2023-06-24T00:57:50;7.50;;;5.10;;
79377;SDS011;68959;53.132;17.984;2023-06-24T01:00:20;10.40;;;4.50;;
79377;SDS011;68959;53.132;17.984;2023-06-24T01:02:49;6.30;;;4.40;;
79377;SDS011;68959;53.132;17.984;2023-06-24T01:05:16;9.50;;;5.00;;
79377;SDS011;68959;53.132;17.984;2023-06-24T01:07:49;12.70;;;5.50;;
79377;SDS011;68959;53.132;17.984;2023-06-24T01:10:22;6.90;;;5.00;;
79377;SDS011;68959;53.132;17.984;2023-06-24T01:12:49;10.40;;;5.40;;
79377;SDS011;68959;53.132;17.984;2023-06-24T01:15:17;8.20;;;5.00;;
79377;SDS011;68959;53.132;17.984;2023-06-24T01:20:27;7.00;;;4.90;;
79377;SDS011;68959;53.132;17.984;2023-06-24T01:25:59;9.90;;;4.90;;
79377;SDS011;68959;53.132;17.984;2023-06-24T01:28:52;7.80;;;5.30;;
79377;SDS011;68959;53.132;17.984;2023-06-24T01:34:27;6.60;;;4.40;;
79377;SDS011;68959;53.132;17.984;2023-06-24T01:37:08;9.60;;;5.10;;
79377;SDS011;68959;53.132;17.984;2023-06-24T01:39:56;9.90;;;5.60;;
79377;SDS011;68959;53.132;17.984;2023-06-24T01:42:23;8.30;;;4.30;;
79377;SDS011;68959;53.132;17.984;2023-06-24T01:44:50;10.30;;;5.10;;
79377;SDS011;68959;53.132;17.984;2023-06-24T01:47:21;9.00;;;5.00;;
79377;SDS011;68959;53.132;17.984;2023-06-24T01:49:52;8.00;;;5.20;;
79377;SDS011;68959;53.132;17.984;2023-06-24T01:52:22;8.60;;;5.40;;
79377;SDS011;68959;53.132;17.984;2023-06-24T01:54:52;7.60;;;5.20;;
79377;SDS011;68959;53.132;17.984;2023-06-24T01:57:21;8.50;;;5.10;;
79377;SDS011;68959;53.132;17.984;2023-06-24T01:59:49;6.30;;;4.50;;
79377;SDS011;68959;53.132;17.984;2023-06-24T02:02:18;5.40;;;4.70;;
79377;SDS011;68959;53.132;17.984;2023-06-24T02:04:47;8.70;;;4.60;;
79377;SDS011;68959;53.132;17.984;2023-06-24T02:07:16;8.00;;;4.90;;
79377;SDS011;68959;53.132;17.984;2023-06-24T02:09:48;8.00;;;4.60;;
79377;SDS011;68959;53.132;17.984;2023-06-24T02:12:17;5.60;;;4.50;;
79377;SDS011;68959;53.132;17.984;2023-06-24T02:14:45;11.10;;;5.00;;
79377;SDS011;68959;53.132;17.984;2023-06-24T02:17:14;7.70;;;5.30;;
79377;SDS011;68959;53.132;17.984;2023-06-24T02:19:42;12.60;;;5.20;;
79377;SDS011;68959;53.132;17.984;2023-06-24T02:22:10;9.50;;;5.60;;
79377;SDS011;68959;53.132;17.984;2023-06-24T02:24:37;7.00;;;4.60;;
79377;SDS011;68959;53.132;17.984;2023-06-24T02:27:06;8.50;;;5.00;;
79377;SDS011;68959;53.132;17.984;2023-06-24T02:29:34;7.60;;;4.60;;
79377;SDS011;68959;53.132;17.984;2023-06-24T02:32:03;8.60;;;5.20;;
79377;SDS011;68959;53.132;17.984;2023-06-24T02:34:30;7.70;;;5.20;;
79377;SDS011;68959;53.132;17.984;2023-06-24T02:37:00;10.50;;;5.90;;
79377;SDS011;68959;53.132;17.984;2023-06-24T02:39:26;6.90;;;5.20;;
79377;SDS011;68959;53.132;17.984;2023-06-24T02:41:53;7.20;;;5.30;;
79377;SDS011;68959;53.132;17.984;2023-06-24T02:44:20;10.70;;;5.50;;
79377;SDS011;68959;53.132;17.984;2023-06-24T02:46:47;8.50;;;4.80;;
79377;SDS011;68959;53.132;17.984;2023-06-24T02:49:15;7.10;;;5.00;;
79377;SDS011;68959;53.132;17.984;2023-06-24T02:51:44;11.60;;;6.10;;
79377;SDS011;68959;53.132;17.984;2023-06-24T02:54:11;7.60;;;5.30;;
79377;SDS011;68959;53.132;17.984;2023-06-24T02:56:59;7.40;;;4.90;;
79377;SDS011;68959;53.132;17.984;2023-06-24T02:59:35;7.20;;;4.90;;
79377;SDS011;68959;53.132;17.984;2023-06-24T03:02:07;9.20;;;4.80;;
79377;SDS011;68959;53.132;17.984;2023-06-24T03:04:35;8.90;;;5.10;;
79377;SDS011;68959;53.132;17.984;2023-06-24T03:07:02;9.00;;;4.80;;
79377;SDS011;68959;53.132;17.984;2023-06-24T03:12:00;7.90;;;4.50;;
79377;SDS011;68959;53.132;17.984;2023-06-24T03:14:34;11.80;;;4.90;;
79377;SDS011;68959;53.132;17.984;2023-06-24T03:17:01;10.60;;;4.60;;
79377;SDS011;68959;53.132;17.984;2023-06-24T03:19:28;9.80;;;5.20;;
79377;SDS011;68959;53.132;17.984;2023-06-24T03:21:55;9.60;;;5.80;;
79377;SDS011;68959;53.132;17.984;2023-06-24T03:24:24;7.60;;;4.60;;
79377;SDS011;68959;53.132;17.984;2023-06-24T03:26:53;8.70;;;4.80;;
79377;SDS011;68959;53.132;17.984;2023-06-24T03:29:25;4.70;;;4.00;;
79377;SDS011;68959;53.132;17.984;2023-06-24T03:31:57;8.40;;;4.80;;
79377;SDS011;68959;53.132;17.984;2023-06-24T03:34:25;7.60;;;4.30;;
79377;SDS011;68959;53.132;17.984;2023-06-24T03:36:53;7.60;;;3.90;;
79377;SDS011;68959;53.132;17.984;2023-06-24T03:39:21;7.90;;;4.40;;
79377;SDS011;68959;53.132;17.984;2023-06-24T03:41:47;9.00;;;4.60;;
79377;SDS011;68959;53.132;17.984;2023-06-24T03:44:14;9.40;;;4.40;;
79377;SDS011;68959;53.132;17.984;2023-06-24T03:46:41;6.20;;;4.30;;
79377;SDS011;68959;53.132;17.984;2023-06-24T03:49:09;5.70;;;3.90;;
79377;SDS011;68959;53.132;17.984;2023-06-24T03:51:36;7.20;;;4.30;;
79377;SDS011;68959;53.132;17.984;2023-06-24T03:54:02;9.00;;;4.60;;
79377;SDS011;68959;53.132;17.984;2023-06-24T03:56:29;7.20;;;4.80;;
79377;SDS011;68959;53.132;17.984;2023-06-24T03:58:56;9.40;;;5.50;;
79377;SDS011;68959;53.132;17.984;2023-06-24T04:01:25;9.10;;;6.20;;
79377;SDS011;68959;53.132;17.984;2023-06-24T04:03:52;8.90;;;4.80;;
79377;SDS011;68959;53.132;17.984;2023-06-24T04:06:18;8.50;;;4.70;;
79377;SDS011;68959;53.132;17.984;2023-06-24T04:08:46;8.60;;;5.20;;
79377;SDS011;68959;53.132;17.984;2023-06-24T04:11:15;6.70;;;4.90;;
79377;SDS011;68959;53.132;17.984;2023-06-24T04:13:42;9.40;;;5.60;;
79377;SDS011;68959;53.132;17.984;2023-06-24T04:16:08;7.50;;;5.00;;
79377;SDS011;68959;53.132;17.984;2023-06-24T04:18:35;12.80;;;5.00;;
79377;SDS011;68959;53.132;17.984;2023-06-24T04:21:06;9.30;;;5.20;;
79377;SDS011;68959;53.132;17.984;2023-06-24T04:23:33;7.70;;;5.30;;
79377;SDS011;68959;53.132;17.984;2023-06-24T04:25:59;9.30;;;4.90;;
79377;SDS011;68959;53.132;17.984;2023-06-24T04:28:26;10.50;;;5.50;;
79377;SDS011;68959;53.132;17.984;2023-06-24T04:30:54;8.80;;;6.10;;
79377;SDS011;68959;53.132;17.984;2023-06-24T04:33:21;9.50;;;5.60;;
79377;SDS011;68959;53.132;17.984;2023-06-24T04:35:48;6.80;;;5.20;;
79377;SDS011;68959;53.132;17.984;2023-06-24T04:38:15;9.30;;;5.60;;
79377;SDS011;68959;53.132;17.984;2023-06-24T04:40:45;12.40;;;5.60;;
79377;SDS011;68959;53.132;17.984;2023-06-24T04:43:11;9.50;;;5.80;;
79377;SDS011;68959;53.132;17.984;2023-06-24T04:45:38;8.90;;;5.80;;
79377;SDS011;68959;53.132;17.984;2023-06-24T04:48:06;7.80;;;4.90;;
79377;SDS011;68959;53.132;17.984;2023-06-24T04:50:32;7.20;;;4.90;;
79377;SDS011;68959;53.132;17.984;2023-06-24T04:52:59;7.90;;;5.20;;
79377;SDS011;68959;53.132;17.984;2023-06-24T04:55:28;9.90;;;5.80;;
79377;SDS011;68959;53.132;17.984;2023-06-24T04:57:56;7.90;;;5.30;;
79377;SDS011;68959;53.132;17.984;2023-06-24T05:00:22;9.70;;;5.50;;
79377;SDS011;68959;53.132;17.984;2023-06-24T05:02:50;7.70;;;5.70;;
79377;SDS011;68959;53.132;17.984;2023-06-24T05:05:18;6.10;;;4.60;;
79377;SDS011;68959;53.132;17.984;2023-06-24T05:07:47;7.90;;;4.80;;
79377;SDS011;68959;53.132;17.984;2023-06-24T05:10:13;10.70;;;5.30;;
79377;SDS011;68959;53.132;17.984;2023-06-24T05:12:40;7.60;;;4.60;;
79377;SDS011;68959;53.132;17.984;2023-06-24T05:15:07;7.70;;;5.30;;
79377;SDS011;68959;53.132;17.984;2023-06-24T05:17:38;11.20;;;4.90;;
79377;SDS011;68959;53.132;17.984;2023-06-24T05:20:06;7.60;;;4.90;;
79377;SDS011;68959;53.132;17.984;2023-06-24T05:22:34;9.60;;;4.80;;
79377;SDS011;68959;53.132;17.984;2023-06-24T05:25:02;6.30;;;4.40;;
79377;SDS011;68959;53.132;17.984;2023-06-24T05:27:29;6.20;;;4.30;;
79377;SDS011;68959;53.132;17.984;2023-06-24T05:29:55;8.20;;;4.90;;
79377;SDS011;68959;53.132;17.984;2023-06-24T05:32:22;8.70;;;5.30;;
79377;SDS011;68959;53.132;17.984;2023-06-24T05:34:49;5.20;;;3.70;;
79377;SDS011;68959;53.132;17.984;2023-06-24T05:37:15;7.30;;;4.60;;
79377;SDS011;68959;53.132;17.984;2023-06-24T05:39:42;10.70;;;5.20;;
79377;SDS011;68959;53.132;17.984;2023-06-24T05:42:08;5.00;;;3.40;;
79377;SDS011;68959;53.132;17.984;2023-06-24T05:44:35;5.70;;;4.20;;
79377;SDS011;68959;53.132;17.984;2023-06-24T05:47:01;12.40;;;4.60;;
79377;SDS011;68959;53.132;17.984;2023-06-24T05:49:28;8.10;;;4.00;;
79377;SDS011;68959;53.132;17.984;2023-06-24T05:51:55;13.30;;;5.10;;
79377;SDS011;68959;53.132;17.984;2023-06-24T05:54:22;6.70;;;3.40;;
79377;SDS011;68959;53.132;17.984;2023-06-24T05:56:49;6.30;;;4.20;;
79377;SDS011;68959;53.132;17.984;2023-06-24T05:59:16;10.10;;;4.00;;
79377;SDS011;68959;53.132;17.984;2023-06-24T06:01:43;8.40;;;4.40;;
79377;SDS011;68959;53.132;17.984;2023-06-24T06:04:09;12.30;;;4.30;;
79377;SDS011;68959;53.132;17.984;2023-06-24T06:06:36;12.60;;;4.90;;
79377;SDS011;68959;53.132;17.984;2023-06-24T06:09:07;5.40;;;4.10;;
79377;SDS011;68959;53.132;17.984;2023-06-24T06:11:34;7.30;;;4.40;;
79377;SDS011;68959;53.132;17.984;2023-06-24T06:14:01;6.00;;;4.00;;
79377;SDS011;68959;53.132;17.984;2023-06-24T06:16:27;5.30;;;3.60;;
79377;SDS011;68959;53.132;17.984;2023-06-24T06:18:54;6.60;;;4.30;;
79377;SDS011;68959;53.132;17.984;2023-06-24T06:21:21;6.60;;;4.20;;
79377;SDS011;68959;53.132;17.984;2023-06-24T06:23:48;16.10;;;4.40;;
79377;SDS011;68959;53.132;17.984;2023-06-24T06:26:14;9.50;;;4.60;;
79377;SDS011;68959;53.132;17.984;2023-06-24T06:28:41;8.10;;;4.50;;
79377;SDS011;68959;53.132;17.984;2023-06-24T06:31:08;9.50;;;5.00;;
79377;SDS011;68959;53.132;17.984;2023-06-24T06:33:35;6.80;;;4.50;;
79377;SDS011;68959;53.132;17.984;2023-06-24T06:36:01;9.20;;;4.90;;
79377;SDS011;68959;53.132;17.984;2023-06-24T06:38:28;10.30;;;4.60;;
79377;SDS011;68959;53.132;17.984;2023-06-24T06:40:54;7.30;;;5.00;;
79377;SDS011;68959;53.132;17.984;2023-06-24T06:43:21;6.60;;;4.50;;
79377;SDS011;68959;53.132;17.984;2023-06-24T06:45:48;7.00;;;3.60;;
79377;SDS011;68959;53.132;17.984;2023-06-24T06:48:14;5.10;;;3.30;;
79377;SDS011;68959;53.132;17.984;2023-06-24T06:50:41;7.80;;;4.10;;
79377;SDS011;68959;53.132;17.984;2023-06-24T06:53:07;8.60;;;4.60;;
79377;SDS011;68959;53.132;17.984;2023-06-24T06:55:34;11.30;;;4.40;;
79377;SDS011;68959;53.132;17.984;2023-06-24T06:58:03;10.20;;;4.40;;
79377;SDS011;68959;53.132;17.984;2023-06-24T07:00:30;9.20;;;3.80;;
79377;SDS011;68959;53.132;17.984;2023-06-24T07:02:57;6.60;;;3.80;;
79377;SDS011;68959;53.132;17.984;2023-06-24T07:05:24;5.40;;;3.30;;
79377;SDS011;68959;53.132;17.984;2023-06-24T07:07:50;4.80;;;3.30;;
79377;SDS011;68959;53.132;17.984;2023-06-24T07:10:18;5.50;;;3.90;;
79377;SDS011;68959;53.132;17.984;2023-06-24T07:12:45;7.60;;;4.10;;
79377;SDS011;68959;53.132;17.984;2023-06-24T07:15:12;7.60;;;3.70;;
79377;SDS011;68959;53.132;17.984;2023-06-24T07:17:39;7.10;;;3.60;;
79377;SDS011;68959;53.132;17.984;2023-06-24T07:20:07;6.00;;;3.50;;
79377;SDS011;68959;53.132;17.984;2023-06-24T07:22:34;6.00;;;4.10;;
79377;SDS011;68959;53.132;17.984;2023-06-24T07:25:00;8.10;;;4.20;;
79377;SDS011;68959;53.132;17.984;2023-06-24T07:27:27;4.90;;;3.10;;
79377;SDS011;68959;53.132;17.984;2023-06-24T07:29:53;6.90;;;3.70;;
79377;SDS011;68959;53.132;17.984;2023-06-24T07:32:20;6.60;;;3.40;;
79377;SDS011;68959;53.132;17.984;2023-06-24T07:34:47;6.70;;;4.00;;
79377;SDS011;68959;53.132;17.984;2023-06-24T07:37:13;5.60;;;3.80;;
79377;SDS011;68959;53.132;17.984;2023-06-24T07:39:40;7.20;;;4.10;;
79377;SDS011;68959;53.132;17.984;2023-06-24T07:42:08;6.60;;;3.50;;
79377;SDS011;68959;53.132;17.984;2023-06-24T07:44:34;5.10;;;3.00;;
79377;SDS011;68959;53.132;17.984;2023-06-24T07:47:03;6.00;;;3.70;;
79377;SDS011;68959;53.132;17.984;2023-06-24T07:49:30;5.60;;;3.50;;
79377;SDS011;68959;53.132;17.984;2023-06-24T07:51:56;7.10;;;4.00;;
79377;SDS011;68959;53.132;17.984;2023-06-24T07:54:23;8.10;;;4.70;;
79377;SDS011;68959;53.132;17.984;2023-06-24T07:56:49;6.70;;;3.20;;
79377;SDS011;68959;53.132;17.984;2023-06-24T07:59:16;6.70;;;3.70;;
79377;SDS011;68959;53.132;17.984;2023-06-24T08:01:42;7.60;;;3.90;;
79377;SDS011;68959;53.132;17.984;2023-06-24T08:04:09;5.00;;;3.20;;
79377;SDS011;68959;53.132;17.984;2023-06-24T08:06:36;8.70;;;5.40;;
79377;SDS011;68959;53.132;17.984;2023-06-24T08:09:02;9.40;;;4.10;;
79377;SDS011;68959;53.132;17.984;2023-06-24T08:11:29;9.20;;;3.50;;
79377;SDS011;68959;53.132;17.984;2023-06-24T08:13:56;8.30;;;3.90;;
79377;SDS011;68959;53.132;17.984;2023-06-24T08:16:22;7.50;;;3.80;;
79377;SDS011;68959;53.132;17.984;2023-06-24T08:18:49;7.00;;;4.00;;
79377;SDS011;68959;53.132;17.984;2023-06-24T08:21:16;7.70;;;4.20;;
79377;SDS011;68959;53.132;17.984;2023-06-24T08:23:42;7.10;;;3.90;;
79377;SDS011;68959;53.132;17.984;2023-06-24T08:26:11;7.10;;;4.30;;
79377;SDS011;68959;53.132;17.984;2023-06-24T08:28:38;5.60;;;3.80;;
79377;SDS011;68959;53.132;17.984;2023-06-24T08:31:05;6.10;;;4.10;;
79377;SDS011;68959;53.132;17.984;2023-06-24T08:33:31;6.60;;;4.30;;
79377;SDS011;68959;53.132;17.984;2023-06-24T08:35:58;4.70;;;3.50;;
79377;SDS011;68959;53.132;17.984;2023-06-24T08:38:25;7.60;;;4.00;;
79377;SDS011;68959;53.132;17.984;2023-06-24T08:40:52;5.60;;;3.50;;
79377;SDS011;68959;53.132;17.984;2023-06-24T08:43:19;8.00;;;3.80;;
79377;SDS011;68959;53.132;17.984;2023-06-24T08:45:45;7.70;;;4.10;;
79377;SDS011;68959;53.132;17.984;2023-06-24T08:48:13;5.60;;;3.50;;
79377;SDS011;68959;53.132;17.984;2023-06-24T08:50:43;9.30;;;3.90;;
79377;SDS011;68959;53.132;17.984;2023-06-24T08:53:14;7.00;;;4.00;;
79377;SDS011;68959;53.132;17.984;2023-06-24T08:55:43;7.70;;;4.00;;
79377;SDS011;68959;53.132;17.984;2023-06-24T08:58:11;6.90;;;4.20;;
79377;SDS011;68959;53.132;17.984;2023-06-24T09:00:37;6.70;;;4.00;;
79377;SDS011;68959;53.132;17.984;2023-06-24T09:03:04;5.60;;;3.70;;
79377;SDS011;68959;53.132;17.984;2023-06-24T09:05:31;6.80;;;4.40;;
79377;SDS011;68959;53.132;17.984;2023-06-24T09:07:58;6.80;;;4.10;;
79377;SDS011;68959;53.132;17.984;2023-06-24T09:10:29;7.90;;;4.30;;
79377;SDS011;68959;53.132;17.984;2023-06-24T09:13:00;6.90;;;4.50;;
79377;SDS011;68959;53.132;17.984;2023-06-24T09:15:34;6.80;;;3.50;;
79377;SDS011;68959;53.132;17.984;2023-06-24T09:18:02;7.70;;;3.70;;
79377;SDS011;68959;53.132;17.984;2023-06-24T09:20:31;7.30;;;3.90;;
79377;SDS011;68959;53.132;17.984;2023-06-24T09:22:58;5.50;;;3.60;;
79377;SDS011;68959;53.132;17.984;2023-06-24T09:25:26;8.20;;;4.20;;
79377;SDS011;68959;53.132;17.984;2023-06-24T09:27:53;5.10;;;3.50;;
79377;SDS011;68959;53.132;17.984;2023-06-24T09:30:22;5.80;;;3.50;;
79377;SDS011;68959;53.132;17.984;2023-06-24T09:32:50;5.70;;;3.40;;
79377;SDS011;68959;53.132;17.984;2023-06-24T09:35:18;8.40;;;3.70;;
79377;SDS011;68959;53.132;17.984;2023-06-24T09:37:50;5.30;;;3.20;;
79377;SDS011;68959;53.132;17.984;2023-06-24T09:40:21;6.00;;;3.70;;
79377;SDS011;68959;53.132;17.984;2023-06-24T09:42:49;8.20;;;4.30;;
79377;SDS011;68959;53.132;17.984;2023-06-24T09:45:24;6.20;;;4.40;;
79377;SDS011;68959;53.132;17.984;2023-06-24T09:47:55;7.40;;;4.00;;
79377;SDS011;68959;53.132;17.984;2023-06-24T09:50:22;6.00;;;4.20;;
79377;SDS011;68959;53.132;17.984;2023-06-24T09:52:49;5.20;;;4.10;;
79377;SDS011;68959;53.132;17.984;2023-06-24T09:55:17;7.10;;;4.10;;
79377;SDS011;68959;53.132;17.984;2023-06-24T09:57:44;6.40;;;3.80;;
79377;SDS011;68959;53.132;17.984;2023-06-24T10:00:14;6.50;;;3.70;;
79377;SDS011;68959;53.132;17.984;2023-06-24T10:02:42;7.50;;;4.20;;
79377;SDS011;68959;53.132;17.984;2023-06-24T10:05:14;6.40;;;3.60;;
79377;SDS011;68959;53.132;17.984;2023-06-24T10:07:41;6.30;;;3.50;;
79377;SDS011;68959;53.132;17.984;2023-06-24T10:10:08;6.00;;;3.70;;
79377;SDS011;68959;53.132;17.984;2023-06-24T10:12:38;6.90;;;3.60;;
79377;SDS011;68959;53.132;17.984;2023-06-24T10:15:05;7.20;;;3.50;;
79377;SDS011;68959;53.132;17.984;2023-06-24T10:17:33;6.60;;;3.40;;
79377;SDS011;68959;53.132;17.984;2023-06-24T10:20:03;5.00;;;3.60;;
79377;SDS011;68959;53.132;17.984;2023-06-24T10:22:31;5.80;;;3.10;;
79377;SDS011;68959;53.132;17.984;2023-06-24T10:25:04;6.30;;;3.20;;
79377;SDS011;68959;53.132;17.984;2023-06-24T10:27:38;4.60;;;3.20;;
79377;SDS011;68959;53.132;17.984;2023-06-24T10:30:06;5.00;;;3.40;;
79377;SDS011;68959;53.132;17.984;2023-06-24T10:32:40;4.70;;;2.60;;
79377;SDS011;68959;53.132;17.984;2023-06-24T10:35:25;5.40;;;3.20;;
79377;SDS011;68959;53.132;17.984;2023-06-24T10:37:56;5.00;;;2.90;;
79377;SDS011;68959;53.132;17.984;2023-06-24T10:40:34;5.60;;;3.30;;
79377;SDS011;68959;53.132;17.984;2023-06-24T10:43:02;5.80;;;3.00;;
79377;SDS011;68959;53.132;17.984;2023-06-24T10:45:49;6.10;;;3.50;;
79377;SDS011;68959;53.132;17.984;2023-06-24T10:48:17;5.00;;;3.30;;
79377;SDS011;68959;53.132;17.984;2023-06-24T10:50:47;5.80;;;3.30;;
79377;SDS011;68959;53.132;17.984;2023-06-24T10:53:14;5.10;;;3.40;;
79377;SDS011;68959;53.132;17.984;2023-06-24T10:55:41;4.70;;;2.90;;
79377;SDS011;68959;53.132;17.984;2023-06-24T10:58:08;6.20;;;3.20;;
79377;SDS011;68959;53.132;17.984;2023-06-24T11:00:36;4.00;;;3.20;;
79377;SDS011;68959;53.132;17.984;2023-06-24T11:03:09;6.10;;;3.10;;
79377;SDS011;68959;53.132;17.984;2023-06-24T11:05:38;4.80;;;3.30;;
79377;SDS011;68959;53.132;17.984;2023-06-24T11:08:06;6.20;;;3.30;;
79377;SDS011;68959;53.132;17.984;2023-06-24T11:10:33;5.30;;;3.50;;
79377;SDS011;68959;53.132;17.984;2023-06-24T11:13:09;5.90;;;3.20;;
79377;SDS011;68959;53.132;17.984;2023-06-24T11:15:35;6.30;;;3.20;;
79377;SDS011;68959;53.132;17.984;2023-06-24T11:18:02;5.70;;;3.30;;
79377;SDS011;68959;53.132;17.984;2023-06-24T11:20:30;6.80;;;3.60;;
79377;SDS011;68959;53.132;17.984;2023-06-24T11:22:57;5.00;;;3.10;;
79377;SDS011;68959;53.132;17.984;2023-06-24T11:25:23;4.70;;;3.50;;
79377;SDS011;68959;53.132;17.984;2023-06-24T11:27:50;4.60;;;2.90;;
79377;SDS011;68959;53.132;17.984;2023-06-24T11:30:18;5.50;;;3.40;;
79377;SDS011;68959;53.132;17.984;2023-06-24T11:32:45;4.00;;;3.00;;
79377;SDS011;68959;53.132;17.984;2023-06-24T11:35:14;4.30;;;3.20;;
79377;SDS011;68959;53.132;17.984;2023-06-24T11:37:45;6.20;;;3.20;;
79377;SDS011;68959;53.132;17.984;2023-06-24T11:40:13;5.20;;;3.60;;
79377;SDS011;68959;53.132;17.984;2023-06-24T11:42:42;5.50;;;3.20;;
79377;SDS011;68959;53.132;17.984;2023-06-24T11:45:11;5.80;;;3.60;;
79377;SDS011;68959;53.132;17.984;2023-06-24T11:47:39;4.70;;;3.40;;
79377;SDS011;68959;53.132;17.984;2023-06-24T11:50:06;4.50;;;3.60;;
79377;SDS011;68959;53.132;17.984;2023-06-24T11:55:26;5.40;;;3.80;;
79377;SDS011;68959;53.132;17.984;2023-06-24T11:57:59;5.20;;;3.60;;
79377;SDS011;68959;53.132;17.984;2023-06-24T12:00:29;6.40;;;3.50;;
79377;SDS011;68959;53.132;17.984;2023-06-24T12:02:58;9.80;;;3.80;;
79377;SDS011;68959;53.132;17.984;2023-06-24T12:10:28;4.60;;;3.10;;
79377;SDS011;68959;53.132;17.984;2023-06-24T12:12:56;5.40;;;3.40;;
79377;SDS011;68959;53.132;17.984;2023-06-24T12:15:24;3.80;;;3.00;;
79377;SDS011;68959;53.132;17.984;2023-06-24T12:17:51;7.20;;;3.50;;
79377;SDS011;68959;53.132;17.984;2023-06-24T12:20:19;3.60;;;3.10;;
79377;SDS011;68959;53.132;17.984;2023-06-24T12:22:46;4.50;;;3.30;;
79377;SDS011;68959;53.132;17.984;2023-06-24T12:25:15;5.90;;;3.40;;
79377;SDS011;68959;53.132;17.984;2023-06-24T12:27:43;8.00;;;3.40;;
79377;SDS011;68959;53.132;17.984;2023-06-24T12:30:10;5.20;;;2.90;;
79377;SDS011;68959;53.132;17.984;2023-06-24T12:32:38;7.40;;;3.40;;
79377;SDS011;68959;53.132;17.984;2023-06-24T12:35:06;5.90;;;3.40;;
79377;SDS011;68959;53.132;17.984;2023-06-24T12:37:37;4.70;;;2.60;;
79377;SDS011;68959;53.132;17.984;2023-06-24T12:40:04;4.20;;;3.20;;
79377;SDS011;68959;53.132;17.984;2023-06-24T12:42:31;4.40;;;2.80;;
79377;SDS011;68959;53.132;17.984;2023-06-24T12:44:58;5.50;;;3.10;;
79377;SDS011;68959;53.132;17.984;2023-06-24T12:47:25;5.20;;;3.10;;
79377;SDS011;68959;53.132;17.984;2023-06-24T12:49:52;3.90;;;3.00;;
79377;SDS011;68959;53.132;17.984;2023-06-24T12:52:19;4.70;;;3.10;;
79377;SDS011;68959;53.132;17.984;2023-06-24T12:54:46;7.70;;;3.10;;
79377;SDS011;68959;53.132;17.984;2023-06-24T12:57:13;5.40;;;3.80;;
79377;SDS011;68959;53.132;17.984;2023-06-24T13:04:35;7.70;;;3.30;;
79377;SDS011;68959;53.132;17.984;2023-06-24T13:07:01;5.70;;;3.40;;
79377;SDS011;68959;53.132;17.984;2023-06-24T13:09:29;7.20;;;4.00;;
79377;SDS011;68959;53.132;17.984;2023-06-24T13:11:56;5.70;;;3.70;;
79377;SDS011;68959;53.132;17.984;2023-06-24T13:14:23;7.20;;;3.40;;
79377;SDS011;68959;53.132;17.984;2023-06-24T13:16:54;6.20;;;3.50;;
79377;SDS011;68959;53.132;17.984;2023-06-24T13:19:21;8.40;;;3.70;;
79377;SDS011;68959;53.132;17.984;2023-06-24T13:21:48;7.80;;;4.20;;
79377;SDS011;68959;53.132;17.984;2023-06-24T13:24:15;6.10;;;3.80;;
79377;SDS011;68959;53.132;17.984;2023-06-24T13:26:42;8.60;;;4.00;;
79377;SDS011;68959;53.132;17.984;2023-06-24T13:29:08;5.40;;;3.90;;
79377;SDS011;68959;53.132;17.984;2023-06-24T13:31:35;6.40;;;4.40;;
79377;SDS011;68959;53.132;17.984;2023-06-24T13:34:02;6.00;;;4.20;;
79377;SDS011;68959;53.132;17.984;2023-06-24T13:36:30;6.90;;;3.90;;
79377;SDS011;68959;53.132;17.984;2023-06-24T13:38:59;8.30;;;3.30;;
79377;SDS011;68959;53.132;17.984;2023-06-24T13:41:26;6.50;;;3.40;;
79377;SDS011;68959;53.132;17.984;2023-06-24T13:43:56;5.90;;;3.20;;
79377;SDS011;68959;53.132;17.984;2023-06-24T13:46:23;4.40;;;3.20;;
79377;SDS011;68959;53.132;17.984;2023-06-24T13:48:50;5.10;;;4.20;;
79377;SDS011;68959;53.132;17.984;2023-06-24T13:51:20;6.30;;;4.00;;
79377;SDS011;68959;53.132;17.984;2023-06-24T13:53:48;7.00;;;3.30;;
79377;SDS011;68959;53.132;17.984;2023-06-24T13:56:20;5.60;;;3.90;;
79377;SDS011;68959;53.132;17.984;2023-06-24T13:58:48;4.90;;;3.80;;
79377;SDS011;68959;53.132;17.984;2023-06-24T14:01:16;4.90;;;3.30;;
79377;SDS011;68959;53.132;17.984;2023-06-24T14:03:43;6.70;;;4.00;;
79377;SDS011;68959;53.132;17.984;2023-06-24T14:06:10;8.50;;;3.30;;
79377;SDS011;68959;53.132;17.984;2023-06-24T14:08:37;8.00;;;4.10;;
79377;SDS011;68959;53.132;17.984;2023-06-24T14:11:04;6.10;;;3.80;;
79377;SDS011;68959;53.132;17.984;2023-06-24T14:13:30;5.80;;;4.00;;
79377;SDS011;68959;53.132;17.984;2023-06-24T14:15:57;5.70;;;3.50;;
79377;SDS011;68959;53.132;17.984;2023-06-24T14:18:24;5.30;;;3.20;;
79377;SDS011;68959;53.132;17.984;2023-06-24T14:20:51;7.90;;;4.20;;
79377;SDS011;68959;53.132;17.984;2023-06-24T14:23:18;4.90;;;3.70;;
79377;SDS011;68959;53.132;17.984;2023-06-24T14:25:45;5.90;;;3.40;;
79377;SDS011;68959;53.132;17.984;2023-06-24T14:28:11;6.10;;;3.40;;
79377;SDS011;68959;53.132;17.984;2023-06-24T14:30:38;8.20;;;3.10;;
79377;SDS011;68959;53.132;17.984;2023-06-24T14:33:05;4.70;;;3.30;;
79377;SDS011;68959;53.132;17.984;2023-06-24T14:35:31;4.30;;;2.90;;
79377;SDS011;68959;53.132;17.984;2023-06-24T14:37:58;6.20;;;3.50;;
79377;SDS011;68959;53.132;17.984;2023-06-24T14:40:25;3.80;;;3.00;;
79377;SDS011;68959;53.132;17.984;2023-06-24T14:42:51;5.10;;;3.30;;
79377;SDS011;68959;53.132;17.984;2023-06-24T14:45:18;4.10;;;3.40;;
79377;SDS011;68959;53.132;17.984;2023-06-24T14:47:45;6.40;;;4.10;;
79377;SDS011;68959;53.132;17.984;2023-06-24T14:50:11;5.00;;;3.50;;
79377;SDS011;68959;53.132;17.984;2023-06-24T14:52:38;5.40;;;3.30;;
79377;SDS011;68959;53.132;17.984;2023-06-24T14:55:05;7.80;;;3.80;;
79377;SDS011;68959;53.132;17.984;2023-06-24T14:57:32;10.10;;;4.00;;
79377;SDS011;68959;53.132;17.984;2023-06-24T14:59:58;5.20;;;3.70;;
79377;SDS011;68959;53.132;17.984;2023-06-24T15:02:25;5.50;;;4.10;;